sensor_id;sensor_type;location;lat;lon;timestamp;P1;durP1;ratioP1;P2;durP2;ratioP2
51810;SDS011;52468;40.116;18.296;2023-06-14T00:02:05;21.67;;;13.90;;
51810;SDS011;52468;40.116;18.296;2023-06-14T00:04:35;21.47;;;13.93;;
51810;SDS011;52468;40.116;18.296;2023-06-14T00:07:05;22.27;;;14.23;;
51810;SDS011;52468;40.116;18.296;2023-06-14T00:09:35;21.27;;;14.30;;
51810;SDS011;52468;40.116;18.296;2023-06-14T00:12:03;22.80;;;13.33;;
51810;SDS011;52468;40.116;18.296;2023-06-14T00:14:31;15.10;;;12.20;;
51810;SDS011;52468;40.116;18.296;2023-06-14T00:16:59;18.43;;;12.73;;
51810;SDS011;52468;40.116;18.296;2023-06-14T00:19:27;19.67;;;14.17;;
51810;SDS011;52468;40.116;18.296;2023-06-14T00:21:56;19.87;;;14.10;;
51810;SDS011;52468;40.116;18.296;2023-06-14T00:24:24;20.17;;;13.50;;
51810;SDS011;52468;40.116;18.296;2023-06-14T00:26:52;19.70;;;13.57;;
51810;SDS011;52468;40.116;18.296;2023-06-14T00:29:22;22.77;;;16.07;;
51810;SDS011;52468;40.116;18.296;2023-06-14T00:31:50;18.93;;;14.80;;
51810;SDS011;52468;40.116;18.296;2023-06-14T00:34:18;23.00;;;15.00;;
51810;SDS011;52468;40.116;18.296;2023-06-14T00:36:46;23.03;;;15.87;;
51810;SDS011;52468;40.116;18.296;2023-06-14T00:39:14;20.20;;;15.03;;
51810;SDS011;52468;40.116;18.296;2023-06-14T00:41:42;20.13;;;14.87;;
51810;SDS011;52468;40.116;18.296;2023-06-14T00:44:10;22.93;;;16.43;;
51810;SDS011;52468;40.116;18.296;2023-06-14T00:46:41;21.57;;;15.00;;
51810;SDS011;52468;40.116;18.296;2023-06-14T00:49:09;23.43;;;17.20;;
51810;SDS011;52468;40.116;18.296;2023-06-14T00:51:37;27.60;;;17.87;;
51810;SDS011;52468;40.116;18.296;2023-06-14T00:54:06;32.53;;;17.20;;
51810;SDS011;52468;40.116;18.296;2023-06-14T00:56:37;28.90;;;18.97;;
51810;SDS011;52468;40.116;18.296;2023-06-14T00:59:05;28.70;;;19.70;;
51810;SDS011;52468;40.116;18.296;2023-06-14T01:01:34;26.07;;;17.03;;
51810;SDS011;52468;40.116;18.296;2023-06-14T01:04:02;29.77;;;18.70;;
51810;SDS011;52468;40.116;18.296;2023-06-14T01:06:38;28.50;;;20.20;;
51810;SDS011;52468;40.116;18.296;2023-06-14T01:09:27;33.60;;;20.80;;
51810;SDS011;52468;40.116;18.296;2023-06-14T01:12:09;30.40;;;19.00;;
51810;SDS011;52468;40.116;18.296;2023-06-14T01:14:43;39.13;;;25.90;;
51810;SDS011;52468;40.116;18.296;2023-06-14T01:17:11;36.83;;;23.37;;
51810;SDS011;52468;40.116;18.296;2023-06-14T01:19:43;40.47;;;24.27;;
51810;SDS011;52468;40.116;18.296;2023-06-14T01:22:14;36.90;;;23.93;;
51810;SDS011;52468;40.116;18.296;2023-06-14T01:24:42;40.90;;;22.37;;
51810;SDS011;52468;40.116;18.296;2023-06-14T01:27:12;38.53;;;23.23;;
51810;SDS011;52468;40.116;18.296;2023-06-14T01:29:43;35.43;;;24.47;;
51810;SDS011;52468;40.116;18.296;2023-06-14T01:32:14;40.97;;;24.03;;
51810;SDS011;52468;40.116;18.296;2023-06-14T01:34:43;37.10;;;23.13;;
51810;SDS011;52468;40.116;18.296;2023-06-14T01:37:11;32.60;;;22.90;;
51810;SDS011;52468;40.116;18.296;2023-06-14T01:39:40;38.90;;;22.30;;
51810;SDS011;52468;40.116;18.296;2023-06-14T01:42:10;36.23;;;22.80;;
51810;SDS011;52468;40.116;18.296;2023-06-14T01:44:41;42.10;;;23.93;;
51810;SDS011;52468;40.116;18.296;2023-06-14T01:47:11;37.67;;;23.50;;
51810;SDS011;52468;40.116;18.296;2023-06-14T01:49:40;37.03;;;22.73;;
51810;SDS011;52468;40.116;18.296;2023-06-14T01:52:08;33.47;;;24.03;;
51810;SDS011;52468;40.116;18.296;2023-06-14T01:54:37;34.47;;;21.53;;
51810;SDS011;52468;40.116;18.296;2023-06-14T01:57:09;42.87;;;22.30;;
51810;SDS011;52468;40.116;18.296;2023-06-14T01:59:37;33.23;;;23.07;;
51810;SDS011;52468;40.116;18.296;2023-06-14T02:02:05;35.33;;;23.03;;
51810;SDS011;52468;40.116;18.296;2023-06-14T02:04:33;34.60;;;21.87;;
51810;SDS011;52468;40.116;18.296;2023-06-14T02:07:01;39.27;;;23.93;;
51810;SDS011;52468;40.116;18.296;2023-06-14T02:09:29;41.60;;;24.60;;
51810;SDS011;52468;40.116;18.296;2023-06-14T02:11:57;37.67;;;23.37;;
51810;SDS011;52468;40.116;18.296;2023-06-14T02:14:26;38.40;;;22.63;;
51810;SDS011;52468;40.116;18.296;2023-06-14T02:16:55;39.67;;;22.73;;
51810;SDS011;52468;40.116;18.296;2023-06-14T02:19:24;35.03;;;21.60;;
51810;SDS011;52468;40.116;18.296;2023-06-14T02:21:52;37.37;;;23.70;;
51810;SDS011;52468;40.116;18.296;2023-06-14T02:24:20;36.87;;;22.40;;
51810;SDS011;52468;40.116;18.296;2023-06-14T02:26:48;38.37;;;23.70;;
51810;SDS011;52468;40.116;18.296;2023-06-14T02:29:16;32.20;;;22.53;;
51810;SDS011;52468;40.116;18.296;2023-06-14T02:31:44;32.53;;;21.13;;
51810;SDS011;52468;40.116;18.296;2023-06-14T02:34:14;30.53;;;19.67;;
51810;SDS011;52468;40.116;18.296;2023-06-14T02:36:46;39.88;;;21.80;;
51810;SDS011;52468;40.116;18.296;2023-06-14T02:39:15;37.67;;;21.67;;
51810;SDS011;52468;40.116;18.296;2023-06-14T02:41:43;34.40;;;20.20;;
51810;SDS011;52468;40.116;18.296;2023-06-14T02:44:13;43.90;;;23.27;;
51810;SDS011;52468;40.116;18.296;2023-06-14T02:46:42;39.60;;;20.40;;
51810;SDS011;52468;40.116;18.296;2023-06-14T02:49:11;35.23;;;20.97;;
51810;SDS011;52468;40.116;18.296;2023-06-14T02:51:39;38.07;;;22.30;;
51810;SDS011;52468;40.116;18.296;2023-06-14T02:54:07;35.87;;;21.37;;
51810;SDS011;52468;40.116;18.296;2023-06-14T02:56:39;36.23;;;22.43;;
51810;SDS011;52468;40.116;18.296;2023-06-14T02:59:08;39.93;;;22.50;;
51810;SDS011;52468;40.116;18.296;2023-06-14T03:01:38;42.90;;;22.73;;
51810;SDS011;52468;40.116;18.296;2023-06-14T03:04:11;46.88;;;25.92;;
51810;SDS011;52468;40.116;18.296;2023-06-14T03:06:41;44.93;;;25.20;;
51810;SDS011;52468;40.116;18.296;2023-06-14T03:09:12;44.60;;;26.33;;
51810;SDS011;52468;40.116;18.296;2023-06-14T03:11:40;43.00;;;26.13;;
51810;SDS011;52468;40.116;18.296;2023-06-14T03:14:08;48.00;;;25.97;;
51810;SDS011;52468;40.116;18.296;2023-06-14T03:16:37;54.30;;;28.30;;
51810;SDS011;52468;40.116;18.296;2023-06-14T03:19:09;54.63;;;28.63;;
51810;SDS011;52468;40.116;18.296;2023-06-14T03:21:37;51.30;;;32.37;;
51810;SDS011;52468;40.116;18.296;2023-06-14T03:24:06;56.47;;;31.03;;
51810;SDS011;52468;40.116;18.296;2023-06-14T03:26:34;57.17;;;31.47;;
51810;SDS011;52468;40.116;18.296;2023-06-14T03:29:04;54.47;;;29.43;;
51810;SDS011;52468;40.116;18.296;2023-06-14T03:31:34;53.60;;;30.70;;
51810;SDS011;52468;40.116;18.296;2023-06-14T03:34:04;56.53;;;31.00;;
51810;SDS011;52468;40.116;18.296;2023-06-14T03:36:33;45.50;;;26.90;;
51810;SDS011;52468;40.116;18.296;2023-06-14T03:39:01;52.20;;;30.60;;
51810;SDS011;52468;40.116;18.296;2023-06-14T03:41:29;52.00;;;29.43;;
51810;SDS011;52468;40.116;18.296;2023-06-14T03:43:57;47.07;;;30.70;;
51810;SDS011;52468;40.116;18.296;2023-06-14T03:46:25;40.87;;;27.57;;
51810;SDS011;52468;40.116;18.296;2023-06-14T03:48:53;45.50;;;25.83;;
51810;SDS011;52468;40.116;18.296;2023-06-14T03:51:22;35.53;;;24.60;;
51810;SDS011;52468;40.116;18.296;2023-06-14T03:53:50;26.27;;;18.00;;
51810;SDS011;52468;40.116;18.296;2023-06-14T03:56:31;16.80;;;14.83;;
51810;SDS011;52468;40.116;18.296;2023-06-14T03:59:00;17.13;;;12.47;;
51810;SDS011;52468;40.116;18.296;2023-06-14T04:01:29;14.17;;;9.27;;
51810;SDS011;52468;40.116;18.296;2023-06-14T04:03:59;10.50;;;7.37;;
51810;SDS011;52468;40.116;18.296;2023-06-14T04:06:28;9.63;;;7.03;;
51810;SDS011;52468;40.116;18.296;2023-06-14T04:08:59;7.87;;;6.73;;
51810;SDS011;52468;40.116;18.296;2023-06-14T04:11:32;10.00;;;7.00;;
51810;SDS011;52468;40.116;18.296;2023-06-14T04:14:01;9.53;;;6.50;;
51810;SDS011;52468;40.116;18.296;2023-06-14T04:16:29;8.47;;;5.13;;
51810;SDS011;52468;40.116;18.296;2023-06-14T04:18:59;8.17;;;6.63;;
51810;SDS011;52468;40.116;18.296;2023-06-14T04:21:28;6.27;;;5.30;;
51810;SDS011;52468;40.116;18.296;2023-06-14T04:23:59;6.30;;;5.07;;
51810;SDS011;52468;40.116;18.296;2023-06-14T04:26:30;9.20;;;6.07;;
51810;SDS011;52468;40.116;18.296;2023-06-14T04:29:01;8.90;;;5.87;;
51810;SDS011;52468;40.116;18.296;2023-06-14T04:31:32;9.53;;;5.67;;
51810;SDS011;52468;40.116;18.296;2023-06-14T04:34:01;6.50;;;5.73;;
51810;SDS011;52468;40.116;18.296;2023-06-14T04:36:34;9.20;;;5.63;;
51810;SDS011;52468;40.116;18.296;2023-06-14T04:39:06;7.80;;;5.88;;
51810;SDS011;52468;40.116;18.296;2023-06-14T04:41:34;7.18;;;6.05;;
51810;SDS011;52468;40.116;18.296;2023-06-14T04:44:02;5.78;;;5.10;;
51810;SDS011;52468;40.116;18.296;2023-06-14T04:46:36;7.45;;;5.05;;
51810;SDS011;52468;40.116;18.296;2023-06-14T04:49:17;6.22;;;5.20;;
51810;SDS011;52468;40.116;18.296;2023-06-14T04:51:45;5.78;;;4.32;;
51810;SDS011;52468;40.116;18.296;2023-06-14T04:54:14;10.43;;;4.50;;
51810;SDS011;52468;40.116;18.296;2023-06-14T04:56:42;4.78;;;4.28;;
51810;SDS011;52468;40.116;18.296;2023-06-14T04:59:12;8.10;;;4.32;;
51810;SDS011;52468;40.116;18.296;2023-06-14T05:01:41;5.20;;;4.60;;
51810;SDS011;52468;40.116;18.296;2023-06-14T05:04:08;6.30;;;5.70;;
51810;SDS011;52468;40.116;18.296;2023-06-14T05:06:37;8.07;;;4.73;;
51810;SDS011;52468;40.116;18.296;2023-06-14T05:09:05;6.30;;;5.07;;
51810;SDS011;52468;40.116;18.296;2023-06-14T05:11:33;5.70;;;4.63;;
51810;SDS011;52468;40.116;18.296;2023-06-14T05:14:01;6.10;;;5.37;;
51810;SDS011;52468;40.116;18.296;2023-06-14T05:16:29;7.30;;;4.83;;
51810;SDS011;52468;40.116;18.296;2023-06-14T05:18:57;5.43;;;4.70;;
51810;SDS011;52468;40.116;18.296;2023-06-14T05:21:27;5.70;;;4.23;;
51810;SDS011;52468;40.116;18.296;2023-06-14T05:23:54;12.80;;;6.87;;
51810;SDS011;52468;40.116;18.296;2023-06-14T05:26:23;9.77;;;5.50;;
51810;SDS011;52468;40.116;18.296;2023-06-14T05:28:56;7.65;;;5.68;;
51810;SDS011;52468;40.116;18.296;2023-06-14T05:31:24;8.70;;;5.10;;
51810;SDS011;52468;40.116;18.296;2023-06-14T05:33:53;5.53;;;5.00;;
51810;SDS011;52468;40.116;18.296;2023-06-14T05:36:21;7.33;;;4.83;;
51810;SDS011;52468;40.116;18.296;2023-06-14T05:38:49;7.93;;;5.07;;
51810;SDS011;52468;40.116;18.296;2023-06-14T05:41:25;5.87;;;4.13;;
51810;SDS011;52468;40.116;18.296;2023-06-14T05:43:54;5.77;;;3.83;;
51810;SDS011;52468;40.116;18.296;2023-06-14T05:46:23;5.80;;;4.20;;
51810;SDS011;52468;40.116;18.296;2023-06-14T05:48:55;13.07;;;5.10;;
51810;SDS011;52468;40.116;18.296;2023-06-14T05:51:23;6.07;;;3.63;;
51810;SDS011;52468;40.116;18.296;2023-06-14T05:53:52;7.63;;;3.73;;
51810;SDS011;52468;40.116;18.296;2023-06-14T05:56:20;6.73;;;4.77;;
51810;SDS011;52468;40.116;18.296;2023-06-14T05:58:48;5.10;;;3.83;;
51810;SDS011;52468;40.116;18.296;2023-06-14T06:01:17;6.13;;;3.17;;
51810;SDS011;52468;40.116;18.296;2023-06-14T06:03:45;7.17;;;4.47;;
51810;SDS011;52468;40.116;18.296;2023-06-14T06:06:13;4.57;;;3.73;;
51810;SDS011;52468;40.116;18.296;2023-06-14T06:08:41;3.87;;;3.37;;
51810;SDS011;52468;40.116;18.296;2023-06-14T06:11:09;4.03;;;3.20;;
51810;SDS011;52468;40.116;18.296;2023-06-14T06:13:37;8.73;;;3.33;;
51810;SDS011;52468;40.116;18.296;2023-06-14T06:16:06;6.30;;;3.33;;
51810;SDS011;52468;40.116;18.296;2023-06-14T06:18:34;5.23;;;2.77;;
51810;SDS011;52468;40.116;18.296;2023-06-14T06:21:05;3.20;;;2.90;;
51810;SDS011;52468;40.116;18.296;2023-06-14T06:23:33;4.63;;;3.60;;
51810;SDS011;52468;40.116;18.296;2023-06-14T06:26:01;9.70;;;4.03;;
51810;SDS011;52468;40.116;18.296;2023-06-14T06:28:29;7.73;;;3.10;;
51810;SDS011;52468;40.116;18.296;2023-06-14T06:30:57;6.20;;;3.13;;
51810;SDS011;52468;40.116;18.296;2023-06-14T06:33:25;5.83;;;3.47;;
51810;SDS011;52468;40.116;18.296;2023-06-14T06:35:52;5.63;;;3.30;;
51810;SDS011;52468;40.116;18.296;2023-06-14T06:38:20;4.60;;;2.87;;
51810;SDS011;52468;40.116;18.296;2023-06-14T06:40:48;5.63;;;3.38;;
51810;SDS011;52468;40.116;18.296;2023-06-14T06:43:16;5.57;;;2.92;;
51810;SDS011;52468;40.116;18.296;2023-06-14T06:45:47;3.50;;;2.97;;
51810;SDS011;52468;40.116;18.296;2023-06-14T06:48:15;3.13;;;2.80;;
51810;SDS011;52468;40.116;18.296;2023-06-14T06:50:43;3.97;;;2.73;;
51810;SDS011;52468;40.116;18.296;2023-06-14T06:53:12;5.00;;;3.10;;
51810;SDS011;52468;40.116;18.296;2023-06-14T06:55:41;3.88;;;3.33;;
51810;SDS011;52468;40.116;18.296;2023-06-14T06:58:09;3.53;;;3.20;;
51810;SDS011;52468;40.116;18.296;2023-06-14T07:00:37;5.65;;;3.10;;
51810;SDS011;52468;40.116;18.296;2023-06-14T07:03:05;3.90;;;2.85;;
51810;SDS011;52468;40.116;18.296;2023-06-14T07:05:33;6.70;;;2.80;;
51810;SDS011;52468;40.116;18.296;2023-06-14T07:08:01;3.83;;;2.45;;
51810;SDS011;52468;40.116;18.296;2023-06-14T07:10:28;5.60;;;3.17;;
51810;SDS011;52468;40.116;18.296;2023-06-14T07:12:57;7.72;;;3.55;;
51810;SDS011;52468;40.116;18.296;2023-06-14T07:15:25;3.38;;;2.22;;
51810;SDS011;52468;40.116;18.296;2023-06-14T07:17:52;3.50;;;3.00;;
51810;SDS011;52468;40.116;18.296;2023-06-14T07:20:20;2.85;;;2.53;;
51810;SDS011;52468;40.116;18.296;2023-06-14T07:22:49;2.58;;;2.30;;
51810;SDS011;52468;40.116;18.296;2023-06-14T07:25:17;3.65;;;2.63;;
51810;SDS011;52468;40.116;18.296;2023-06-14T07:27:47;4.85;;;3.17;;
51810;SDS011;52468;40.116;18.296;2023-06-14T07:30:15;3.72;;;2.58;;
51810;SDS011;52468;40.116;18.296;2023-06-14T07:32:43;3.60;;;2.65;;
51810;SDS011;52468;40.116;18.296;2023-06-14T07:35:11;4.38;;;2.38;;
51810;SDS011;52468;40.116;18.296;2023-06-14T07:37:39;3.25;;;2.63;;
51810;SDS011;52468;40.116;18.296;2023-06-14T07:40:07;5.95;;;2.60;;
51810;SDS011;52468;40.116;18.296;2023-06-14T07:42:35;3.72;;;2.40;;
51810;SDS011;52468;40.116;18.296;2023-06-14T07:45:03;2.17;;;1.98;;
51810;SDS011;52468;40.116;18.296;2023-06-14T07:47:33;4.05;;;2.40;;
51810;SDS011;52468;40.116;18.296;2023-06-14T07:50:01;2.78;;;2.40;;
51810;SDS011;52468;40.116;18.296;2023-06-14T07:52:30;4.35;;;2.78;;
51810;SDS011;52468;40.116;18.296;2023-06-14T07:54:58;2.60;;;2.25;;
51810;SDS011;52468;40.116;18.296;2023-06-14T07:57:26;6.38;;;3.13;;
51810;SDS011;52468;40.116;18.296;2023-06-14T07:59:53;6.35;;;2.75;;
51810;SDS011;52468;40.116;18.296;2023-06-14T08:02:21;3.60;;;2.20;;
51810;SDS011;52468;40.116;18.296;2023-06-14T08:04:49;2.63;;;2.38;;
51810;SDS011;52468;40.116;18.296;2023-06-14T08:07:17;5.22;;;2.60;;
51810;SDS011;52468;40.116;18.296;2023-06-14T08:09:45;3.10;;;2.40;;
51810;SDS011;52468;40.116;18.296;2023-06-14T08:12:13;3.50;;;2.40;;
51810;SDS011;52468;40.116;18.296;2023-06-14T08:14:41;3.60;;;2.10;;
51810;SDS011;52468;40.116;18.296;2023-06-14T08:17:09;4.30;;;3.03;;
51810;SDS011;52468;40.116;18.296;2023-06-14T08:19:37;3.25;;;2.40;;
51810;SDS011;52468;40.116;18.296;2023-06-14T08:22:05;3.97;;;2.45;;
51810;SDS011;52468;40.116;18.296;2023-06-14T08:24:33;5.18;;;2.22;;
51810;SDS011;52468;40.116;18.296;2023-06-14T08:27:01;4.30;;;2.65;;
51810;SDS011;52468;40.116;18.296;2023-06-14T08:29:29;2.30;;;1.83;;
51810;SDS011;52468;40.116;18.296;2023-06-14T08:31:58;4.90;;;2.42;;
51810;SDS011;52468;40.116;18.296;2023-06-14T08:34:26;3.95;;;2.05;;
51810;SDS011;52468;40.116;18.296;2023-06-14T08:36:54;2.65;;;2.40;;
51810;SDS011;52468;40.116;18.296;2023-06-14T08:39:21;2.38;;;2.17;;
51810;SDS011;52468;40.116;18.296;2023-06-14T08:41:49;3.17;;;2.60;;
51810;SDS011;52468;40.116;18.296;2023-06-14T08:44:19;2.30;;;2.10;;
51810;SDS011;52468;40.116;18.296;2023-06-14T08:46:47;2.75;;;2.47;;
51810;SDS011;52468;40.116;18.296;2023-06-14T08:49:16;4.00;;;2.22;;
51810;SDS011;52468;40.116;18.296;2023-06-14T08:51:45;2.25;;;2.00;;
51810;SDS011;52468;40.116;18.296;2023-06-14T08:54:14;3.13;;;2.17;;
51810;SDS011;52468;40.116;18.296;2023-06-14T08:56:43;3.50;;;2.20;;
51810;SDS011;52468;40.116;18.296;2023-06-14T08:59:11;2.40;;;2.20;;
51810;SDS011;52468;40.116;18.296;2023-06-14T09:01:39;2.50;;;2.17;;
51810;SDS011;52468;40.116;18.296;2023-06-14T09:04:09;3.97;;;2.35;;
51810;SDS011;52468;40.116;18.296;2023-06-14T09:06:37;3.25;;;2.38;;
51810;SDS011;52468;40.116;18.296;2023-06-14T09:09:05;12.88;;;2.75;;
51810;SDS011;52468;40.116;18.296;2023-06-14T09:11:34;2.85;;;2.40;;
51810;SDS011;52468;40.116;18.296;2023-06-14T09:14:02;2.03;;;1.77;;
51810;SDS011;52468;40.116;18.296;2023-06-14T09:16:32;2.38;;;2.10;;
51810;SDS011;52468;40.116;18.296;2023-06-14T09:19:00;2.50;;;2.20;;
51810;SDS011;52468;40.116;18.296;2023-06-14T09:21:31;2.38;;;2.17;;
51810;SDS011;52468;40.116;18.296;2023-06-14T09:24:03;2.83;;;2.30;;
51810;SDS011;52468;40.116;18.296;2023-06-14T09:26:31;2.88;;;2.33;;
51810;SDS011;52468;40.116;18.296;2023-06-14T09:28:59;7.05;;;2.20;;
51810;SDS011;52468;40.116;18.296;2023-06-14T09:31:27;2.38;;;2.17;;
51810;SDS011;52468;40.116;18.296;2023-06-14T09:33:59;5.05;;;2.05;;
51810;SDS011;52468;40.116;18.296;2023-06-14T09:36:30;2.50;;;2.30;;
51810;SDS011;52468;40.116;18.296;2023-06-14T09:38:59;4.88;;;2.20;;
51810;SDS011;52468;40.116;18.296;2023-06-14T09:41:35;3.55;;;2.30;;
51810;SDS011;52468;40.116;18.296;2023-06-14T09:44:05;2.15;;;1.95;;
51810;SDS011;52468;40.116;18.296;2023-06-14T09:46:36;4.53;;;2.60;;
51810;SDS011;52468;40.116;18.296;2023-06-14T09:49:05;3.78;;;2.58;;
51810;SDS011;52468;40.116;18.296;2023-06-14T09:51:34;4.50;;;2.58;;
51810;SDS011;52468;40.116;18.296;2023-06-14T09:54:13;2.15;;;1.98;;
51810;SDS011;52468;40.116;18.296;2023-06-14T09:56:46;4.65;;;2.45;;
51810;SDS011;52468;40.116;18.296;2023-06-14T09:59:16;4.22;;;2.25;;
51810;SDS011;52468;40.116;18.296;2023-06-14T10:01:48;3.80;;;2.70;;
51810;SDS011;52468;40.116;18.296;2023-06-14T10:04:18;2.67;;;2.13;;
51810;SDS011;52468;40.116;18.296;2023-06-14T10:06:49;2.45;;;2.22;;
51810;SDS011;52468;40.116;18.296;2023-06-14T10:09:19;2.65;;;2.08;;
51810;SDS011;52468;40.116;18.296;2023-06-14T10:11:49;2.95;;;2.75;;
51810;SDS011;52468;40.116;18.296;2023-06-14T10:14:18;3.70;;;2.20;;
51810;SDS011;52468;40.116;18.296;2023-06-14T10:19:37;2.63;;;2.30;;
51810;SDS011;52468;40.116;18.296;2023-06-14T10:22:21;3.90;;;2.78;;
51810;SDS011;52468;40.116;18.296;2023-06-14T10:24:56;6.00;;;2.65;;
51810;SDS011;52468;40.116;18.296;2023-06-14T10:27:24;2.70;;;2.47;;
51810;SDS011;52468;40.116;18.296;2023-06-14T10:32:20;3.50;;;2.83;;
51810;SDS011;52468;40.116;18.296;2023-06-14T10:35:02;3.42;;;2.78;;
51810;SDS011;52468;40.116;18.296;2023-06-14T10:37:33;2.53;;;2.20;;
51810;SDS011;52468;40.116;18.296;2023-06-14T10:40:02;4.82;;;2.63;;
51810;SDS011;52468;40.116;18.296;2023-06-14T10:42:32;5.20;;;3.00;;
51810;SDS011;52468;40.116;18.296;2023-06-14T10:45:00;4.75;;;2.63;;
51810;SDS011;52468;40.116;18.296;2023-06-14T10:47:31;3.50;;;2.83;;
51810;SDS011;52468;40.116;18.296;2023-06-14T10:52:34;2.92;;;2.25;;
51810;SDS011;52468;40.116;18.296;2023-06-14T10:55:10;4.10;;;3.25;;
51810;SDS011;52468;40.116;18.296;2023-06-14T10:57:42;4.03;;;3.50;;
51810;SDS011;52468;40.116;18.296;2023-06-14T11:00:17;3.75;;;3.03;;
51810;SDS011;52468;40.116;18.296;2023-06-14T11:05:41;3.42;;;2.30;;
51810;SDS011;52468;40.116;18.296;2023-06-14T11:08:17;3.78;;;2.50;;
51810;SDS011;52468;40.116;18.296;2023-06-14T11:11:08;4.55;;;3.00;;
51810;SDS011;52468;40.116;18.296;2023-06-14T11:13:38;2.85;;;2.58;;
51810;SDS011;52468;40.116;18.296;2023-06-14T11:16:13;5.00;;;2.42;;
51810;SDS011;52468;40.116;18.296;2023-06-14T11:18:42;3.23;;;2.67;;
51810;SDS011;52468;40.116;18.296;2023-06-14T11:21:15;3.40;;;3.10;;
51810;SDS011;52468;40.116;18.296;2023-06-14T11:23:50;3.95;;;3.28;;
51810;SDS011;52468;40.116;18.296;2023-06-14T11:26:25;3.65;;;2.38;;
51810;SDS011;52468;40.116;18.296;2023-06-14T11:28:55;3.67;;;2.17;;
51810;SDS011;52468;40.116;18.296;2023-06-14T11:31:27;2.45;;;2.25;;
51810;SDS011;52468;40.116;18.296;2023-06-14T11:33:56;3.67;;;2.50;;
51810;SDS011;52468;40.116;18.296;2023-06-14T11:36:28;2.63;;;2.42;;
51810;SDS011;52468;40.116;18.296;2023-06-14T11:38:58;2.42;;;2.22;;
51810;SDS011;52468;40.116;18.296;2023-06-14T11:41:32;4.72;;;3.03;;
51810;SDS011;52468;40.116;18.296;2023-06-14T11:44:01;2.72;;;2.25;;
51810;SDS011;52468;40.116;18.296;2023-06-14T11:46:30;3.03;;;1.73;;
51810;SDS011;52468;40.116;18.296;2023-06-14T11:48:57;2.67;;;2.03;;
51810;SDS011;52468;40.116;18.296;2023-06-14T11:51:25;4.85;;;2.53;;
51810;SDS011;52468;40.116;18.296;2023-06-14T11:53:54;3.97;;;2.58;;
51810;SDS011;52468;40.116;18.296;2023-06-14T11:56:22;2.22;;;1.90;;
51810;SDS011;52468;40.116;18.296;2023-06-14T11:58:50;2.17;;;1.83;;
51810;SDS011;52468;40.116;18.296;2023-06-14T12:01:19;2.55;;;2.35;;
51810;SDS011;52468;40.116;18.296;2023-06-14T12:03:50;2.17;;;1.98;;
51810;SDS011;52468;40.116;18.296;2023-06-14T12:06:26;2.28;;;1.92;;
51810;SDS011;52468;40.116;18.296;2023-06-14T12:08:56;2.88;;;2.17;;
51810;SDS011;52468;40.116;18.296;2023-06-14T12:11:28;3.85;;;2.45;;
51810;SDS011;52468;40.116;18.296;2023-06-14T12:14:00;3.60;;;2.53;;
51810;SDS011;52468;40.116;18.296;2023-06-14T12:16:31;2.20;;;2.08;;
51810;SDS011;52468;40.116;18.296;2023-06-14T12:19:01;2.53;;;1.73;;
51810;SDS011;52468;40.116;18.296;2023-06-14T12:21:38;5.57;;;2.95;;
51810;SDS011;52468;40.116;18.296;2023-06-14T12:24:07;2.00;;;1.52;;
51810;SDS011;52468;40.116;18.296;2023-06-14T12:26:37;2.65;;;2.28;;
51810;SDS011;52468;40.116;18.296;2023-06-14T12:29:08;10.25;;;1.95;;
51810;SDS011;52468;40.116;18.296;2023-06-14T12:31:37;2.50;;;1.80;;
51810;SDS011;52468;40.116;18.296;2023-06-14T12:34:05;2.78;;;1.88;;
51810;SDS011;52468;40.116;18.296;2023-06-14T12:36:33;2.95;;;1.45;;
51810;SDS011;52468;40.116;18.296;2023-06-14T12:39:07;2.53;;;1.77;;
51810;SDS011;52468;40.116;18.296;2023-06-14T12:41:36;3.40;;;1.92;;
51810;SDS011;52468;40.116;18.296;2023-06-14T12:44:04;5.47;;;2.38;;
51810;SDS011;52468;40.116;18.296;2023-06-14T12:46:32;1.60;;;1.50;;
51810;SDS011;52468;40.116;18.296;2023-06-14T12:49:02;4.47;;;2.28;;
51810;SDS011;52468;40.116;18.296;2023-06-14T12:51:30;4.03;;;2.08;;
51810;SDS011;52468;40.116;18.296;2023-06-14T12:53:58;1.98;;;1.67;;
51810;SDS011;52468;40.116;18.296;2023-06-14T12:56:26;3.65;;;2.17;;
51810;SDS011;52468;40.116;18.296;2023-06-14T12:58:54;4.55;;;2.30;;
51810;SDS011;52468;40.116;18.296;2023-06-14T13:01:22;2.67;;;1.75;;
51810;SDS011;52468;40.116;18.296;2023-06-14T13:03:50;2.28;;;2.08;;
51810;SDS011;52468;40.116;18.296;2023-06-14T13:06:21;2.55;;;2.00;;
51810;SDS011;52468;40.116;18.296;2023-06-14T13:08:52;2.53;;;2.00;;
51810;SDS011;52468;40.116;18.296;2023-06-14T13:11:22;2.85;;;1.90;;
51810;SDS011;52468;40.116;18.296;2023-06-14T13:13:50;2.20;;;2.00;;
51810;SDS011;52468;40.116;18.296;2023-06-14T13:16:18;4.18;;;2.15;;
51810;SDS011;52468;40.116;18.296;2023-06-14T13:18:46;4.07;;;2.15;;
51810;SDS011;52468;40.116;18.296;2023-06-14T13:21:13;2.22;;;2.00;;
51810;SDS011;52468;40.116;18.296;2023-06-14T13:23:42;3.10;;;1.90;;
51810;SDS011;52468;40.116;18.296;2023-06-14T13:26:10;1.95;;;1.63;;
51810;SDS011;52468;40.116;18.296;2023-06-14T13:28:37;1.80;;;1.48;;
51810;SDS011;52468;40.116;18.296;2023-06-14T13:31:05;1.67;;;1.52;;
51810;SDS011;52468;40.116;18.296;2023-06-14T13:33:33;2.13;;;1.50;;
51810;SDS011;52468;40.116;18.296;2023-06-14T13:36:01;2.28;;;1.63;;
51810;SDS011;52468;40.116;18.296;2023-06-14T13:38:29;4.45;;;1.92;;
51810;SDS011;52468;40.116;18.296;2023-06-14T13:40:57;3.83;;;1.80;;
51810;SDS011;52468;40.116;18.296;2023-06-14T13:43:25;2.70;;;1.80;;
51810;SDS011;52468;40.116;18.296;2023-06-14T13:45:53;3.83;;;2.10;;
51810;SDS011;52468;40.116;18.296;2023-06-14T13:48:21;2.10;;;1.90;;
51810;SDS011;52468;40.116;18.296;2023-06-14T13:50:49;2.70;;;2.20;;
51810;SDS011;52468;40.116;18.296;2023-06-14T13:53:17;2.67;;;1.55;;
51810;SDS011;52468;40.116;18.296;2023-06-14T13:55:45;2.60;;;1.80;;
51810;SDS011;52468;40.116;18.296;2023-06-14T13:58:13;2.85;;;1.88;;
51810;SDS011;52468;40.116;18.296;2023-06-14T14:00:42;3.95;;;2.42;;
51810;SDS011;52468;40.116;18.296;2023-06-14T14:03:10;3.33;;;3.03;;
51810;SDS011;52468;40.116;18.296;2023-06-14T14:05:38;3.72;;;2.22;;
51810;SDS011;52468;40.116;18.296;2023-06-14T14:08:06;3.78;;;1.83;;
51810;SDS011;52468;40.116;18.296;2023-06-14T14:10:34;4.30;;;1.85;;
51810;SDS011;52468;40.116;18.296;2023-06-14T14:13:01;2.67;;;2.00;;
51810;SDS011;52468;40.116;18.296;2023-06-14T14:15:29;2.33;;;2.13;;
51810;SDS011;52468;40.116;18.296;2023-06-14T14:17:57;2.47;;;2.00;;
51810;SDS011;52468;40.116;18.296;2023-06-14T14:20:26;1.80;;;1.70;;
51810;SDS011;52468;40.116;18.296;2023-06-14T14:22:57;7.65;;;2.25;;
51810;SDS011;52468;40.116;18.296;2023-06-14T14:25:25;2.92;;;2.17;;
51810;SDS011;52468;40.116;18.296;2023-06-14T14:27:53;3.45;;;2.38;;
51810;SDS011;52468;40.116;18.296;2023-06-14T14:30:21;4.47;;;2.10;;
51810;SDS011;52468;40.116;18.296;2023-06-14T14:32:50;3.90;;;2.33;;
51810;SDS011;52468;40.116;18.296;2023-06-14T14:35:19;3.00;;;2.22;;
51810;SDS011;52468;40.116;18.296;2023-06-14T14:37:48;5.40;;;1.83;;
51810;SDS011;52468;40.116;18.296;2023-06-14T14:40:16;4.45;;;2.60;;
51810;SDS011;52468;40.116;18.296;2023-06-14T14:42:44;2.75;;;2.20;;
51810;SDS011;52468;40.116;18.296;2023-06-14T14:45:12;3.55;;;2.22;;
51810;SDS011;52468;40.116;18.296;2023-06-14T14:47:40;2.65;;;2.33;;
51810;SDS011;52468;40.116;18.296;2023-06-14T14:50:08;4.05;;;2.85;;